Terminal Aerodrome Forecast
Issued by NWS Raleigh/Durham, NC

Home | Current Version | Previous Version | Text Only | Print | Product List | Glossary On
Versions: 1 2 3 4 5 6 7 8 9 10 11 12 13
000
FTUS42 KRAH 280520
TAFRDU
TAF
KRDU 280520Z 2806/2906 17005KT P6SM FEW250
     FM281500 12007KT P6SM SCT040 BKN200
     FM282000 12006KT P6SM BKN040 OVC120
     FM282300 VRB04KT P6SM VCSH SCT030 OVC070
     FM290200 VRB04KT 4SM -RA BR BKN020 OVC060=

USA.gov is the U.S. government's official web portal to all federal, state and local government web resources and services.